Time;durP1;ratioP1;P1;durP2;ratioP2;P2;SDS_P1;SDS_P2;PMS_P1;PMS_P2;Temp;Humidity;BMP_temperature;BMP_pressure;BME280_temperature;BME280_humidity;BME280_pressure;Samples;Min_cycle;Max_cycle;Signal;HPM_P1;HPM_P2
2022/11/29 00:01:10;;;;;;;125.70;61.85;;;2.90;99.90;;;;;;5074273;28;20025;-75
2022/11/29 00:03:36;;;;;;;121.63;59.08;;;2.90;99.90;;;;;;5074974;28;20028;-75
2022/11/29 00:06:10;;;;;;;121.88;58.92;;;2.90;99.90;;;;;;5074745;28;20016;-75
2022/11/29 00:08:35;;;;;;;113.03;57.17;;;2.90;99.90;;;;;;5074576;28;20028;-75
2022/11/29 00:14:18;;;;;;;112.40;56.15;;;2.80;99.90;;;;;;5052606;28;20036;-74
2022/11/29 00:16:44;;;;;;;98.38;50.35;;;2.80;99.90;;;;;;5051393;28;20107;-75
2022/11/29 00:19:12;;;;;;;101.57;51.92;;;2.80;99.90;;;;;;5052489;28;20036;-77
2022/11/29 00:21:37;;;;;;;105.90;51.10;;;2.80;99.90;;;;;;5052044;28;20072;-74
2022/11/29 00:24:03;;;;;;;101.68;50.58;;;2.80;99.90;;;;;;5051858;28;20179;-75
2022/11/29 00:26:29;;;;;;;115.43;57.25;;;2.80;99.90;;;;;;5052126;28;20032;-74
2022/11/29 00:28:55;;;;;;;109.13;52.60;;;2.80;99.90;;;;;;5051953;28;20021;-74
2022/11/29 00:31:29;;;;;;;100.35;50.83;;;2.80;99.90;;;;;;5035094;28;20139;-74
2022/11/29 00:33:55;;;;;;;111.15;52.20;;;2.80;99.90;;;;;;5035336;28;20025;-75
2022/11/29 00:36:21;;;;;;;112.32;53.35;;;2.80;99.90;;;;;;5051961;28;20037;-74
2022/11/29 00:38:52;;;;;;;101.05;50.58;;;2.70;99.90;;;;;;5051784;28;20021;-74
2022/11/29 00:41:18;;;;;;;109.55;52.13;;;2.70;99.90;;;;;;5051779;28;20056;-74
2022/11/29 00:43:44;;;;;;;99.85;51.03;;;2.70;99.90;;;;;;5051827;28;20146;-74
2022/11/29 00:46:11;;;;;;;108.05;50.65;;;2.70;99.90;;;;;;5051549;28;20071;-75
2022/11/29 00:48:37;;;;;;;107.03;50.15;;;2.70;99.90;;;;;;5051717;28;20021;-74
2022/11/29 00:51:04;;;;;;;93.53;45.60;;;2.70;99.90;;;;;;5069710;28;20044;-74
2022/11/29 00:53:31;;;;;;;97.30;47.33;;;2.70;99.90;;;;;;5074148;28;20029;-74
2022/11/29 00:55:57;;;;;;;87.28;44.38;;;2.70;99.90;;;;;;5073620;28;20459;-74
2022/11/29 00:58:22;;;;;;;87.90;44.28;;;2.70;99.90;;;;;;5073851;28;20070;-74
2022/11/29 01:00:49;;;;;;;95.88;46.67;;;2.70;99.90;;;;;;5073483;28;20082;-74
2022/11/29 01:03:15;;;;;;;84.82;42.22;;;2.80;99.90;;;;;;5073773;28;20020;-73
2022/11/29 01:05:42;;;;;;;97.20;45.78;;;2.80;99.90;;;;;;5073337;28;20044;-74
2022/11/29 01:08:08;;;;;;;90.20;43.28;;;2.80;99.90;;;;;;5073805;28;20052;-73
2022/11/29 01:10:34;;;;;;;93.57;43.45;;;2.80;99.90;;;;;;5073756;28;20075;-73
2022/11/29 01:13:00;;;;;;;86.50;39.95;;;2.80;99.90;;;;;;5073590;28;20455;-74
2022/11/29 01:15:26;;;;;;;76.20;38.13;;;2.80;99.90;;;;;;5073590;28;20094;-75
2022/11/29 01:17:52;;;;;;;73.10;36.55;;;2.80;99.90;;;;;;5073317;28;20020;-74
2022/11/29 01:20:18;;;;;;;85.85;38.47;;;2.80;99.90;;;;;;5073424;28;20035;-75
2022/11/29 01:22:44;;;;;;;79.93;37.75;;;2.80;99.90;;;;;;5073456;28;20079;-77
2022/11/29 01:25:12;;;;;;;83.75;39.70;;;2.70;99.90;;;;;;5073346;28;20020;-73
2022/11/29 01:27:38;;;;;;;73.00;35.00;;;2.80;99.90;;;;;;5074901;28;20020;-73
2022/11/29 01:30:06;;;;;;;77.97;36.13;;;2.70;99.90;;;;;;5077707;28;20027;-73
2022/11/29 01:32:31;;;;;;;73.80;36.97;;;2.70;99.90;;;;;;5070657;28;20108;-74
2022/11/29 01:34:57;;;;;;;67.20;34.83;;;2.70;99.90;;;;;;5066962;28;20462;-75
2022/11/29 01:37:23;;;;;;;71.85;36.92;;;2.70;99.90;;;;;;5077741;28;20020;-74
2022/11/29 01:39:49;;;;;;;67.70;35.13;;;2.70;99.90;;;;;;5077741;28;20081;-73
2022/11/29 01:42:15;;;;;;;77.38;36.08;;;2.70;99.90;;;;;;5077310;28;20111;-74
2022/11/29 01:44:44;;;;;;;65.32;33.35;;;2.60;99.90;;;;;;5077145;28;20028;-75
2022/11/29 01:47:11;;;;;;;67.65;33.28;;;2.60;99.90;;;;;;5076899;28;20024;-74
2022/11/29 01:49:41;;;;;;;62.35;32.47;;;2.60;99.90;;;;;;5077136;28;20020;-75
2022/11/29 01:52:12;;;;;;;66.47;34.33;;;2.60;99.90;;;;;;5076859;28;20103;-73
2022/11/29 01:54:45;;;;;;;70.55;33.60;;;2.60;99.90;;;;;;5077237;28;20059;-73
2022/11/29 01:57:12;;;;;;;67.57;34.10;;;2.60;99.90;;;;;;5060929;28;20035;-74
2022/11/29 01:59:43;;;;;;;67.10;33.92;;;2.60;99.90;;;;;;5056755;28;20029;-76
2022/11/29 02:02:14;;;;;;;52.72;26.02;;;2.60;99.90;;;;;;5074928;28;20031;-76
2022/11/29 02:04:43;;;;;;;71.68;35.22;;;2.60;99.90;;;;;;5067044;28;20057;-74
2022/11/29 02:07:09;;;;;;;66.95;33.78;;;2.60;99.90;;;;;;5056819;28;20527;-75
2022/11/29 02:09:35;;;;;;;68.10;31.30;;;2.60;99.90;;;;;;5063302;28;20082;-74
2022/11/29 02:12:23;;;;;;;67.82;31.60;;;2.60;99.90;;;;;;5073705;28;20029;-74
2022/11/29 02:14:59;;;;;;;65.53;31.92;;;2.60;99.90;;;;;;5056233;28;20452;-76
2022/11/29 02:17:43;;;;;;;55.47;29.05;;;2.60;99.90;;;;;;5056454;28;20025;-76
2022/11/29 02:20:46;;;;;;;61.35;30.60;;;2.60;99.90;;;;;;5056504;28;20105;-76
2022/11/29 02:23:30;;;;;;;;;;;2.60;99.90;;;;;;5070679;28;20032;-75
2022/11/29 02:26:40;;;;;;;56.83;28.75;;;2.60;99.90;;;;;;5074087;28;19949;-74
2022/11/29 02:29:27;;;;;;;67.22;34.10;;;2.50;99.90;;;;;;5075491;28;20035;-75
2022/11/29 02:32:11;;;;;;;66.85;32.53;;;2.50;99.90;;;;;;5075733;28;20043;-74
2022/11/29 02:34:56;;;;;;;71.15;34.28;;;2.50;99.90;;;;;;5069348;28;20032;-74
2022/11/29 02:37:21;;;;;;;79.95;36.75;;;2.50;99.90;;;;;;5056182;28;20111;-74
2022/11/29 02:40:08;;;;;;;74.68;36.47;;;2.50;99.90;;;;;;5074694;28;20029;-75
2022/11/29 02:42:48;;;;;;;73.60;36.35;;;2.50;99.90;;;;;;5075172;28;20028;-75
2022/11/29 02:45:17;;;;;;;76.82;35.88;;;2.50;99.90;;;;;;5075219;28;20036;-74
2022/11/29 02:47:58;;;;;;;80.00;38.58;;;2.50;99.90;;;;;;5075511;28;20055;-74
2022/11/29 02:50:42;;;;;;;75.13;34.70;;;2.50;99.90;;;;;;5073796;28;20048;-75
2022/11/29 02:53:17;;;;;;;82.82;36.30;;;2.50;99.90;;;;;;5075574;28;20033;-74
2022/11/29 02:55:46;;;;;;;69.70;32.00;;;2.60;99.90;;;;;;5075115;28;20044;-75
2022/11/29 02:58:12;;;;;;;70.25;32.53;;;2.50;99.90;;;;;;5072417;28;20051;-74
2022/11/29 03:00:47;;;;;;;69.97;32.60;;;2.60;99.90;;;;;;5063738;28;20071;-75
2022/11/29 03:03:51;;;;;;;75.18;31.05;;;2.50;99.90;;;;;;5075670;28;20031;-74
2022/11/29 03:07:02;;;;;;;63.40;31.08;;;2.60;99.90;;;;;;5051270;28;20025;-74
2022/11/29 03:09:35;;;;;;;68.47;31.33;;;2.60;99.90;;;;;;5053355;28;20029;-74
2022/11/29 03:12:29;;;;;;;70.20;30.30;;;2.60;99.90;;;;;;5053296;28;20341;-74
2022/11/29 03:15:13;;;;;;;60.80;29.90;;;2.60;99.90;;;;;;5036588;28;20056;-76
2022/11/29 03:17:42;;;;;;;83.80;35.88;;;2.60;99.90;;;;;;5063770;28;20173;-75
2022/11/29 03:20:26;;;;;;;59.08;28.25;;;2.60;99.90;;;;;;5073149;28;20059;-74
2022/11/29 03:23:13;;;;;;;60.00;29.73;;;2.60;99.90;;;;;;5073328;28;20035;-75
2022/11/29 03:25:47;;;;;;;58.70;29.45;;;2.60;99.90;;;;;;5073085;28;20042;-75
2022/11/29 03:28:54;;;;;;;54.55;27.25;;;2.60;99.90;;;;;;5073294;28;20025;-73
2022/11/29 03:31:22;;;;;;;54.60;26.55;;;2.60;99.90;;;;;;5055694;28;20123;-74
2022/11/29 03:34:03;;;;;;;63.67;30.40;;;2.60;99.90;;;;;;5072910;28;20024;-75
2022/11/29 03:37:08;;;;;;;68.80;34.75;;;2.60;99.90;;;;;;5073020;28;20025;-74
2022/11/29 03:39:50;;;;;;;71.70;35.30;;;2.60;99.90;;;;;;5072766;28;20519;-75
2022/11/29 03:42:25;;;;;;;68.30;34.17;;;2.50;99.90;;;;;;5073073;28;20032;-75
2022/11/29 03:45:06;;;;;;;76.82;35.80;;;2.50;99.90;;;;;;5073698;28;20106;-74
2022/11/29 03:47:56;;;;;;;74.10;36.08;;;2.40;99.90;;;;;;5074686;28;20013;-75
2022/11/29 03:50:31;;;;;;;74.30;34.22;;;2.40;99.90;;;;;;5073731;28;20028;-76
2022/11/29 03:53:27;;;;;;;75.82;35.65;;;2.40;99.90;;;;;;5075105;28;20059;-75
2022/11/29 03:55:59;;;;;;;69.68;34.47;;;2.40;99.90;;;;;;5075101;28;20028;-75
2022/11/29 03:58:38;;;;;;;72.13;34.80;;;2.30;99.90;;;;;;5074922;28;20021;-74
2022/11/29 04:01:28;;;;;;;72.32;34.08;;;2.30;99.90;;;;;;5074623;28;20032;-74
2022/11/29 04:04:14;;;;;;;65.63;33.28;;;2.40;99.90;;;;;;5074781;28;20031;-74
2022/11/29 04:07:01;;;;;;;71.45;33.00;;;2.40;99.90;;;;;;5048421;28;20045;-74
2022/11/29 04:09:48;;;;;;;74.30;33.70;;;2.30;99.90;;;;;;5073388;28;20046;-75
2022/11/29 04:12:38;;;;;;;79.55;34.20;;;2.30;99.90;;;;;;5074269;28;20024;-75
2022/11/29 04:15:42;;;;;;;96.75;38.33;;;2.30;99.90;;;;;;5054280;28;20503;-74
2022/11/29 04:18:37;;;;;;;75.78;33.17;;;2.40;99.90;;;;;;5045917;28;20067;-74
2022/11/29 04:21:24;;;;;;;73.13;33.63;;;2.40;99.90;;;;;;5054462;28;20105;-73
2022/11/29 04:24:17;;;;;;;80.55;32.63;;;2.40;99.90;;;;;;5054311;28;20032;-75
2022/11/29 04:26:43;;;;;;;67.68;31.98;;;2.40;99.90;;;;;;5070718;28;20074;-75
2022/11/29 04:29:12;;;;;;;62.78;31.40;;;2.40;99.90;;;;;;5074159;28;20025;-73
2022/11/29 04:31:57;;;;;;;70.00;33.42;;;2.50;99.90;;;;;;5074372;28;20055;-74
2022/11/29 04:34:31;;;;;;;63.45;30.98;;;2.50;99.90;;;;;;5073985;28;20398;-74
2022/11/29 04:37:18;;;;;;;60.10;30.75;;;2.50;99.90;;;;;;5073778;28;20016;-75
2022/11/29 04:40:30;;;;;;;74.38;32.88;;;2.50;99.90;;;;;;5073921;28;20113;-74
2022/11/29 04:43:20;;;;;;;74.53;34.45;;;2.50;99.90;;;;;;5050653;28;20040;-75
2022/11/29 04:45:54;;;;;;;87.15;38.85;;;2.50;99.90;;;;;;5052139;28;20136;-74
2022/11/29 04:48:48;;;;;;;94.93;42.05;;;2.50;99.90;;;;;;5051677;28;20082;-74
2022/11/29 04:51:16;;;;;;;86.40;40.75;;;2.50;99.90;;;;;;5051547;28;20033;-74
2022/11/29 04:53:51;;;;;;;81.95;40.65;;;2.50;99.90;;;;;;5051859;28;20037;-74
2022/11/29 04:56:39;;;;;;;89.53;41.90;;;2.50;99.90;;;;;;5051504;28;20035;-75
2022/11/29 04:59:25;;;;;;;85.10;40.20;;;2.50;99.90;;;;;;5051643;28;20442;-73
2022/11/29 05:02:18;;;;;;;86.88;40.10;;;2.50;99.90;;;;;;5046261;28;20021;-74
2022/11/29 05:04:54;;;;;;;84.88;38.60;;;2.40;99.90;;;;;;5031511;28;20075;-75
2022/11/29 05:07:26;;;;;;;82.60;40.30;;;2.40;99.90;;;;;;5031679;28;20041;-75
2022/11/29 05:10:16;;;;;;;92.60;43.13;;;2.40;99.90;;;;;;5019088;28;20369;-74
2022/11/29 05:12:56;;;;;;;98.05;44.33;;;2.40;99.90;;;;;;5022774;28;20045;-75
2022/11/29 05:15:59;;;;;;;98.35;45.20;;;2.40;99.90;;;;;;5023979;28;20111;-74
2022/11/29 05:18:33;;;;;;;;;;;2.40;99.90;;;;;;5034443;28;20068;-74
2022/11/29 05:21:12;;;;;;;96.03;45.53;;;2.40;99.90;;;;;;5053363;28;19958;-74
2022/11/29 05:23:47;;;;;;;101.32;44.67;;;2.40;99.90;;;;;;5053769;28;20025;-74
2022/11/29 05:26:27;;;;;;;97.85;43.83;;;2.40;99.90;;;;;;5053200;28;20100;-75
2022/11/29 05:29:15;;;;;;;94.32;45.30;;;2.30;99.90;;;;;;5053279;28;20071;-74
2022/11/29 05:31:58;;;;;;;105.03;43.88;;;2.30;99.90;;;;;;5053194;28;20031;-76
2022/11/29 05:34:47;;;;;;;97.15;43.25;;;2.40;99.90;;;;;;5054600;28;20475;-74
2022/11/29 05:37:31;;;;;;;105.65;46.33;;;2.30;99.90;;;;;;5065400;28;20025;-75
2022/11/29 05:40:12;;;;;;;113.28;47.03;;;2.30;99.90;;;;;;5066243;28;20473;-74
2022/11/29 05:42:59;;;;;;;120.47;50.13;;;2.30;99.90;;;;;;5060185;28;20467;-75
2022/11/29 05:45:54;;;;;;;102.80;47.80;;;2.30;99.90;;;;;;5056941;28;20103;-74
2022/11/29 05:48:54;;;;;;;120.70;53.92;;;2.30;99.90;;;;;;5066841;28;20029;-74
2022/11/29 05:51:31;;;;;;;138.40;59.90;;;2.30;99.90;;;;;;5055034;28;20460;-75
2022/11/29 05:54:21;;;;;;;140.70;65.57;;;2.30;99.90;;;;;;5072927;28;20435;-74
2022/11/29 05:57:24;;;;;;;135.32;63.05;;;2.30;99.90;;;;;;5073183;28;20028;-74
2022/11/29 05:59:50;;;;;;;135.25;64.20;;;2.30;99.90;;;;;;5073115;28;20494;-74
2022/11/29 06:02:22;;;;;;;135.02;64.10;;;2.20;99.90;;;;;;5073500;28;20069;-74
2022/11/29 06:04:59;;;;;;;133.05;61.63;;;2.30;99.90;;;;;;5072934;28;20480;-74
2022/11/29 06:07:50;;;;;;;146.43;68.05;;;2.30;99.90;;;;;;5073169;28;20337;-75
2022/11/29 06:10:23;;;;;;;151.35;69.93;;;2.30;99.90;;;;;;5073002;28;20029;-74
2022/11/29 06:13:09;;;;;;;131.48;63.70;;;2.30;99.90;;;;;;5073300;28;20020;-74
2022/11/29 06:15:47;;;;;;;142.52;65.90;;;2.30;99.90;;;;;;5076483;28;20122;-74
2022/11/29 06:18:39;;;;;;;161.40;68.38;;;2.30;99.90;;;;;;5076563;28;20069;-75
2022/11/29 06:21:05;;;;;;;;;;;2.40;99.90;;;;;;5066393;28;20051;-76
2022/11/29 06:23:42;;;;;;;135.15;59.05;;;2.40;99.90;;;;;;5076805;28;19900;-75
2022/11/29 06:26:43;;;;;;;147.30;66.00;;;2.50;99.90;;;;;;5076660;28;20447;-76
2022/11/29 06:29:18;;;;;;;116.43;56.67;;;2.40;99.90;;;;;;5076502;28;20021;-74
2022/11/29 06:31:50;;;;;;;106.00;47.65;;;2.50;99.90;;;;;;5076580;28;20028;-74
2022/11/29 06:34:31;;;;;;;90.30;43.03;;;2.50;99.90;;;;;;5076458;28;20090;-73
2022/11/29 06:37:36;;;;;;;85.40;39.90;;;2.50;99.90;;;;;;5076687;28;20021;-73
2022/11/29 06:40:03;;;;;;;77.55;37.97;;;2.50;99.90;;;;;;5075127;28;20505;-74
2022/11/29 06:42:29;;;;;;;86.45;42.70;;;2.50;99.90;;;;;;5076454;28;20028;-75
2022/11/29 06:44:55;;;;;;;84.25;42.28;;;2.60;99.90;;;;;;5076391;28;20025;-74
2022/11/29 06:47:39;;;;;;;95.93;46.63;;;2.60;99.90;;;;;;5076257;28;20027;-73
2022/11/29 06:50:20;;;;;;;96.78;44.25;;;2.60;99.90;;;;;;5076172;28;20024;-75
2022/11/29 06:52:57;;;;;;;101.43;46.67;;;2.60;99.90;;;;;;5075992;28;20078;-74
2022/11/29 06:55:31;;;;;;;93.15;46.03;;;2.60;99.90;;;;;;5075964;28;20020;-74
2022/11/29 06:58:25;;;;;;;102.90;46.67;;;2.70;99.90;;;;;;5076207;28;20017;-74
2022/11/29 07:00:53;;;;;;;110.68;52.00;;;2.70;99.90;;;;;;5076049;28;20056;-74
2022/11/29 07:03:58;;;;;;;106.55;52.17;;;2.70;99.90;;;;;;5075890;28;20024;-74
2022/11/29 07:06:27;;;;;;;114.78;52.22;;;2.70;99.90;;;;;;5076198;28;20073;-74
2022/11/29 07:09:00;;;;;;;113.25;53.75;;;2.70;99.90;;;;;;5075636;28;20099;-75
2022/11/29 07:11:27;;;;;;;123.15;58.58;;;2.70;99.90;;;;;;5076361;28;20032;-74
2022/11/29 07:13:53;;;;;;;108.40;50.33;;;2.70;99.90;;;;;;5075750;28;20016;-74
2022/11/29 07:16:46;;;;;;;107.80;50.55;;;2.80;99.90;;;;;;5076014;28;20044;-76
2022/11/29 07:19:49;;;;;;;96.13;44.03;;;2.90;99.90;;;;;;5075848;28;20027;-74
2022/11/29 07:22:42;;;;;;;93.80;41.45;;;3.00;99.90;;;;;;5075352;28;20028;-75
2022/11/29 07:25:20;;;;;;;90.88;44.28;;;3.10;99.90;;;;;;5075358;28;20511;-75
2022/11/29 07:28:10;;;;;;;102.47;46.67;;;3.20;99.90;;;;;;5075558;28;20070;-74
2022/11/29 07:30:46;;;;;;;100.47;43.70;;;3.20;99.90;;;;;;5075289;28;20401;-75
2022/11/29 07:33:40;;;;;;;106.60;48.92;;;3.40;99.90;;;;;;5075552;28;20048;-74
2022/11/29 07:36:29;;;;;;;176.20;62.47;;;3.50;99.90;;;;;;5075397;28;20048;-75
2022/11/29 07:39:16;;;;;;;125.43;54.00;;;3.50;99.90;;;;;;5073888;28;20023;-74
2022/11/29 07:42:19;;;;;;;86.70;41.63;;;3.70;99.90;;;;;;5074840;28;20025;-76
2022/11/29 07:44:48;;;;;;;86.20;43.03;;;3.70;99.90;;;;;;5075052;28;20040;-74
2022/11/29 07:47:13;;;;;;;84.07;42.00;;;3.70;99.90;;;;;;5075209;28;20021;-75
2022/11/29 07:49:39;;;;;;;100.70;50.40;;;3.70;99.90;;;;;;5074797;28;20085;-75
2022/11/29 07:52:05;;;;;;;315.65;183.00;;;3.80;99.90;;;;;;5074871;28;20052;-75
2022/11/29 07:54:31;;;;;;;178.75;100.25;;;3.80;99.90;;;;;;5074883;28;20552;-75
2022/11/29 07:56:56;;;;;;;230.93;123.05;;;3.80;99.90;;;;;;5075140;28;20027;-76
2022/11/29 07:59:22;;;;;;;141.70;81.65;;;3.90;99.90;;;;;;5074696;28;20020;-76
2022/11/29 08:01:48;;;;;;;99.53;50.90;;;4.00;99.90;;;;;;5074825;28;20367;-76
2022/11/29 08:04:14;;;;;;;94.85;43.47;;;4.00;99.90;;;;;;5074517;28;20351;-75
2022/11/29 08:06:39;;;;;;;90.22;41.15;;;4.00;99.90;;;;;;5074354;28;20078;-75
2022/11/29 08:09:06;;;;;;;100.97;47.63;;;4.00;99.90;;;;;;5074646;28;20029;-75
2022/11/29 08:11:32;;;;;;;108.40;49.08;;;4.10;99.90;;;;;;5074478;28;20084;-75
2022/11/29 08:14:03;;;;;;;97.07;43.30;;;4.20;99.90;;;;;;5073992;28;20100;-75
2022/11/29 08:16:28;;;;;;;265.70;127.40;;;4.30;99.90;;;;;;5074675;28;20052;-75
2022/11/29 08:18:54;;;;;;;145.65;71.25;;;4.40;99.90;;;;;;5074031;28;20020;-76
2022/11/29 08:21:21;;;;;;;90.72;42.13;;;4.40;99.90;;;;;;5073975;28;20067;-74
2022/11/29 08:23:48;;;;;;;79.45;41.67;;;4.50;99.90;;;;;;5074100;28;20060;-75
2022/11/29 08:26:15;;;;;;;68.70;34.63;;;4.70;99.90;;;;;;5073992;28;20020;-75
2022/11/29 08:28:41;;;;;;;82.32;39.20;;;4.70;99.90;;;;;;5074395;28;20017;-75
2022/11/29 08:31:10;;;;;;;75.63;37.63;;;4.70;99.90;;;;;;5074285;28;20031;-74
2022/11/29 08:33:38;;;;;;;81.57;38.17;;;4.80;99.90;;;;;;5074110;28;20017;-75
2022/11/29 08:36:09;;;;;;;57.67;30.10;;;4.90;99.90;;;;;;5073777;28;20017;-76
2022/11/29 08:38:35;;;;;;;80.93;38.53;;;4.90;99.90;;;;;;5073663;28;20049;-75
2022/11/29 08:41:02;;;;;;;97.90;43.20;;;5.00;99.90;;;;;;5073370;28;20087;-75
2022/11/29 08:43:29;;;;;;;59.83;31.45;;;5.20;99.90;;;;;;5073942;28;20096;-76
2022/11/29 08:45:55;;;;;;;71.63;35.45;;;5.10;99.90;;;;;;5074014;28;20028;-74
2022/11/29 08:48:21;;;;;;;54.72;29.73;;;5.20;99.90;;;;;;5073622;28;20028;-74
2022/11/29 08:50:51;;;;;;;57.50;29.35;;;5.30;99.90;;;;;;5072777;28;20028;-76
2022/11/29 08:56:02;;;;;;;63.10;31.38;;;5.50;99.90;;;;;;5073520;28;20035;-76
2022/11/29 08:58:28;;;;;;;92.32;47.05;;;5.60;99.90;;;;;;5073923;28;20149;-76
2022/11/29 09:00:54;;;;;;;100.72;47.45;;;5.70;99.90;;;;;;5073077;28;20029;-74
2022/11/29 09:06:11;;;;;;;200.00;68.25;;;6.00;99.90;;;;;;5072978;28;20523;-74
2022/11/29 09:08:37;;;;;;;98.82;44.05;;;6.10;99.90;;;;;;5072873;28;20024;-74
2022/11/29 09:11:13;;;;;;;135.27;55.75;;;6.20;99.90;;;;;;5073836;28;20027;-74
2022/11/29 09:13:41;;;;;;;114.03;49.78;;;6.40;99.90;;;;;;5073448;28;20051;-75
2022/11/29 09:16:09;;;;;;;108.63;48.72;;;6.60;99.90;;;;;;5072015;28;20082;-75
2022/11/29 09:18:37;;;;;;;61.72;30.50;;;6.60;99.90;;;;;;5072814;28;20043;-75
2022/11/29 09:21:12;;;;;;;56.70;29.92;;;6.50;99.90;;;;;;5072085;28;20115;-75
2022/11/29 09:23:40;;;;;;;140.73;51.85;;;6.50;99.90;;;;;;5073622;28;20021;-75
2022/11/29 09:26:08;;;;;;;57.50;30.70;;;6.60;99.90;;;;;;5073562;28;20035;-75
2022/11/29 09:28:35;;;;;;;65.35;33.20;;;6.50;99.90;;;;;;5073727;28;20070;-75
2022/11/29 09:31:11;;;;;;;57.38;28.38;;;6.60;99.90;;;;;;5073443;28;20028;-75
2022/11/29 09:33:38;;;;;;;50.75;27.50;;;6.60;99.90;;;;;;5073661;28;20031;-75
2022/11/29 09:36:06;;;;;;;60.55;28.92;;;6.60;99.90;;;;;;5073114;28;20021;-75
2022/11/29 09:38:33;;;;;;;135.88;50.53;;;6.70;99.90;;;;;;5073593;28;20025;-75
2022/11/29 09:41:07;;;;;;;109.70;42.70;;;6.70;99.90;;;;;;5073085;28;20047;-75
2022/11/29 09:43:52;;;;;;;79.38;39.67;;;6.80;99.90;;;;;;5073431;28;20025;-75
2022/11/29 09:46:29;;;;;;;60.45;30.27;;;6.90;99.90;;;;;;5073919;28;20024;-76
2022/11/29 09:49:12;;;;;;;70.00;31.42;;;7.00;99.90;;;;;;5075165;28;20028;-75
2022/11/29 09:51:58;;;;;;;115.63;47.35;;;7.00;99.90;;;;;;5077406;28;20451;-74
2022/11/29 09:54:48;;;;;;;56.20;28.90;;;7.30;99.90;;;;;;5077433;28;20060;-75
2022/11/29 09:57:16;;;;;;;54.90;30.20;;;7.50;99.90;;;;;;5077163;28;20070;-75
2022/11/29 09:59:51;;;;;;;46.25;24.02;;;7.70;99.90;;;;;;5077174;28;20490;-74
2022/11/29 10:02:25;;;;;;;76.13;42.80;;;7.80;99.90;;;;;;5077180;28;20021;-75
2022/11/29 10:05:01;;;;;;;48.60;26.60;;;7.90;99.90;;;;;;5077224;28;20074;-75
2022/11/29 10:07:34;;;;;;;48.25;26.70;;;8.20;99.90;;;;;;5077263;28;20016;-75
2022/11/29 10:10:13;;;;;;;43.00;24.92;;;8.60;99.90;;;;;;5076773;28;20455;-75
2022/11/29 10:12:52;;;;;;;50.70;25.73;;;9.00;99.30;;;;;;5076665;28;20052;-75
2022/11/29 10:15:43;;;;;;;107.25;57.22;;;9.40;96.60;;;;;;5076409;28;20101;-74
2022/11/29 10:18:37;;;;;;;53.38;32.08;;;9.70;95.20;;;;;;5071231;28;20094;-75
2022/11/29 10:21:13;;;;;;;64.32;39.22;;;9.80;95.10;;;;;;5076782;28;20064;-76
2022/11/29 10:23:45;;;;;;;50.17;30.08;;;9.30;93.50;;;;;;5076568;28;20059;-74
2022/11/29 10:26:11;;;;;;;78.32;40.17;;;9.10;93.30;;;;;;5076585;28;20451;-75
2022/11/29 10:28:43;;;;;;;45.58;27.23;;;9.30;93.50;;;;;;5076831;28;20024;-74
2022/11/29 10:31:20;;;;;;;68.65;36.95;;;9.40;93.80;;;;;;5076914;28;20025;-74
2022/11/29 10:33:46;;;;;;;78.00;34.92;;;9.30;92.70;;;;;;5076159;28;20031;-75
2022/11/29 10:36:39;;;;;;;125.03;52.20;;;9.10;92.30;;;;;;5076509;28;20115;-75
2022/11/29 10:39:38;;;;;;;82.22;43.45;;;8.80;93.70;;;;;;5076625;28;20099;-75
2022/11/29 10:42:47;;;;;;;68.57;35.75;;;8.60;94.00;;;;;;5076474;28;20051;-74
2022/11/29 10:44:51;;;;;;;55.40;28.50;;;8.60;94.80;;;;;;5075876;28;20033;-74
2022/11/29 10:47:17;;;;;;;43.42;23.20;;;8.40;95.70;;;;;;5076203;28;20069;-76
2022/11/29 10:49:43;;;;;;;42.92;25.98;;;8.10;94.60;;;;;;5076103;28;20028;-75
2022/11/29 10:52:19;;;;;;;41.15;24.50;;;8.00;95.60;;;;;;5075923;28;20394;-75
2022/11/29 10:54:45;;;;;;;77.78;47.65;;;7.90;96.50;;;;;;5076170;28;20464;-75
2022/11/29 10:57:20;;;;;;;50.38;28.95;;;7.70;96.40;;;;;;5075793;28;20020;-75
2022/11/29 11:00:08;;;;;;;61.55;36.70;;;7.70;97.60;;;;;;5075384;28;20551;-75
2022/11/29 11:02:35;;;;;;;57.88;31.48;;;7.70;98.90;;;;;;5076269;28;20069;-77
2022/11/29 11:05:02;;;;;;;61.80;34.97;;;7.70;99.90;;;;;;5075980;28;20115;-75
2022/11/29 11:07:33;;;;;;;41.13;25.02;;;7.70;99.90;;;;;;5075939;28;20043;-76
2022/11/29 11:10:01;;;;;;;38.05;22.52;;;7.60;99.00;;;;;;5075800;28;20013;-74
2022/11/29 11:12:30;;;;;;;49.92;28.05;;;7.80;99.70;;;;;;5075819;28;20021;-75
2022/11/29 11:15:30;;;;;;;47.55;25.83;;;7.90;99.50;;;;;;5074077;28;20079;-75
2022/11/29 11:17:58;;;;;;;46.28;26.83;;;7.80;98.70;;;;;;5075883;28;20024;-75
2022/11/29 11:20:26;;;;;;;53.75;28.60;;;7.80;99.40;;;;;;5075915;28;20028;-75
2022/11/29 11:23:01;;;;;;;36.28;19.27;;;7.80;99.90;;;;;;5075219;28;20102;-76
2022/11/29 11:25:34;;;;;;;49.78;27.58;;;7.60;99.20;;;;;;5075497;28;20039;-74
2022/11/29 11:28:19;;;;;;;88.03;47.85;;;7.70;99.90;;;;;;5075380;28;20013;-75
2022/11/29 11:31:07;;;;;;;74.75;34.35;;;7.80;99.90;;;;;;5075686;28;20021;-75
2022/11/29 11:33:34;;;;;;;90.93;42.70;;;7.80;99.80;;;;;;5075369;28;20052;-75
2022/11/29 11:36:02;;;;;;;85.95;37.00;;;7.80;99.40;;;;;;5075132;28;20027;-75
2022/11/29 11:38:28;;;;;;;146.02;57.30;;;7.80;99.90;;;;;;5075113;28;20016;-74
2022/11/29 11:42:35;;;;;;;108.85;46.05;;;7.80;99.90;;;;;;5074857;28;20118;-75
2022/11/29 11:44:30;;;;;;;97.90;44.13;;;7.70;99.90;;;;;;5074596;28;20024;-74
2022/11/29 11:46:58;;;;;;;116.30;49.60;;;7.60;99.90;;;;;;5075107;28;20447;-75
2022/11/29 11:49:31;;;;;;;85.07;38.17;;;7.50;99.90;;;;;;5074704;28;20021;-75
2022/11/29 11:51:59;;;;;;;81.18;36.28;;;7.50;99.90;;;;;;5074897;28;20522;-74
2022/11/29 11:54:27;;;;;;;89.00;38.03;;;7.40;99.90;;;;;;5074958;28;20023;-74
2022/11/29 11:56:54;;;;;;;55.15;27.30;;;7.40;99.90;;;;;;5074450;28;20367;-74
2022/11/29 11:59:23;;;;;;;78.18;36.65;;;7.40;99.90;;;;;;5074775;28;20021;-74
2022/11/29 12:01:49;;;;;;;74.47;37.10;;;7.40;99.90;;;;;;5074467;28;20021;-75
2022/11/29 12:04:32;;;;;;;48.90;26.45;;;7.50;99.90;;;;;;5074665;28;20114;-76
2022/11/29 12:07:16;;;;;;;59.38;28.50;;;7.50;99.90;;;;;;5074803;28;20086;-76
2022/11/29 12:09:55;;;;;;;56.60;28.73;;;7.40;99.90;;;;;;5074899;28;20017;-75
2022/11/29 12:12:25;;;;;;;65.55;33.97;;;7.40;99.90;;;;;;5073517;28;20028;-75
2022/11/29 12:15:03;;;;;;;65.50;35.03;;;7.40;99.90;;;;;;5074153;28;20068;-74
2022/11/29 12:17:56;;;;;;;56.08;29.73;;;7.40;99.90;;;;;;5074144;28;20138;-75
2022/11/29 12:20:22;;;;;;;74.22;35.65;;;7.40;99.90;;;;;;5074220;28;20423;-76
2022/11/29 12:23:11;;;;;;;108.38;55.83;;;7.40;99.90;;;;;;5074493;28;20063;-75
2022/11/29 12:25:50;;;;;;;58.25;33.75;;;7.40;99.90;;;;;;5074331;28;20048;-75
2022/11/29 12:28:17;;;;;;;54.22;28.38;;;7.40;99.90;;;;;;5074119;28;20020;-75
2022/11/29 12:31:05;;;;;;;55.55;32.42;;;7.40;99.90;;;;;;5074683;28;20077;-75
2022/11/29 12:33:43;;;;;;;54.65;31.45;;;7.30;99.90;;;;;;5074471;28;20107;-75
2022/11/29 12:36:27;;;;;;;53.70;33.55;;;7.40;99.90;;;;;;5074149;28;20017;-75
2022/11/29 12:39:02;;;;;;;64.97;38.03;;;7.40;99.90;;;;;;5073809;28;20406;-74
2022/11/29 12:41:36;;;;;;;43.83;26.40;;;7.30;99.90;;;;;;5074255;28;20021;-74
2022/11/29 12:44:28;;;;;;;68.78;40.63;;;7.30;99.90;;;;;;5074132;28;20020;-74
2022/11/29 12:47:13;;;;;;;;;;;7.30;99.90;;;;;;5074493;28;20021;-74
2022/11/29 12:50:09;;;;;;;53.20;26.00;;;7.30;99.90;;;;;;5073795;28;19906;-75
2022/11/29 12:52:59;;;;;;;42.58;21.77;;;7.30;99.90;;;;;;5074035;28;20451;-74
2022/11/29 12:55:48;;;;;;;118.72;56.03;;;7.30;99.90;;;;;;5073910;28;20103;-75
2022/11/29 12:58:46;;;;;;;94.25;44.85;;;7.30;99.90;;;;;;5073967;28;20050;-74
2022/11/29 13:01:21;;;;;;;126.32;44.63;;;7.30;99.90;;;;;;5056342;28;20487;-74
2022/11/29 13:04:00;;;;;;;101.30;40.95;;;7.30;99.90;;;;;;5073921;28;20052;-75
2022/11/29 13:06:38;;;;;;;118.45;50.38;;;7.30;99.90;;;;;;5073485;28;20021;-75
2022/11/29 13:09:31;;;;;;;84.25;39.28;;;7.30;99.90;;;;;;5073727;28;20024;-75
2022/11/29 13:12:11;;;;;;;57.03;27.33;;;7.30;99.90;;;;;;5031226;28;20041;-74
2022/11/29 13:14:51;;;;;;;65.15;33.78;;;7.30;99.90;;;;;;5031111;28;20018;-74
2022/11/29 13:17:36;;;;;;;73.55;34.83;;;7.30;99.90;;;;;;5031623;28;20033;-75
2022/11/29 13:20:38;;;;;;;66.63;31.70;;;7.30;99.90;;;;;;5031257;28;20032;-75
2022/11/29 13:23:21;;;;;;;67.05;33.95;;;7.30;99.90;;;;;;5035039;28;20037;-74
2022/11/29 13:25:50;;;;;;;47.05;24.13;;;7.20;99.90;;;;;;5038090;28;20033;-74
2022/11/29 13:28:28;;;;;;;59.38;30.23;;;7.20;99.90;;;;;;5037669;28;20021;-75
2022/11/29 13:31:11;;;;;;;74.07;33.13;;;7.20;99.90;;;;;;5038105;28;20025;-74
2022/11/29 13:33:55;;;;;;;56.33;29.30;;;7.20;99.90;;;;;;5038109;28;20060;-75